createdAt,value
2022-09-28T00:01:55.249Z,8.05
2022-09-28T00:04:21.921Z,6.25
2022-09-28T00:06:48.757Z,5.65
2022-09-28T00:09:16.654Z,4.57
2022-09-28T00:11:43.975Z,5.68
2022-09-28T00:14:11.248Z,6.80
2022-09-28T00:16:43.526Z,11.93
2022-09-28T00:19:11.519Z,5.97
2022-09-28T00:21:40.569Z,8.85
2022-09-28T00:24:17.146Z,8.55
2022-09-28T00:26:47.768Z,9.43
2022-09-28T00:29:38.339Z,10.98
2022-09-28T00:32:11.504Z,8.87
2022-09-28T00:34:45.884Z,9.27
2022-09-28T00:37:14.255Z,7.03
2022-09-28T00:39:43.915Z,7.78
2022-09-28T00:42:19.011Z,8.18
2022-09-28T00:44:58.266Z,9.93
2022-09-28T00:47:46.562Z,9.25
2022-09-28T00:50:18.501Z,9.88
2022-09-28T00:53:01.314Z,8.77
2022-09-28T00:55:54.827Z,7.60
2022-09-28T00:58:27.475Z,10.30
2022-09-28T01:00:56.355Z,9.00
2022-09-28T01:03:22.885Z,10.77
2022-09-28T01:05:51.687Z,8.18
2022-09-28T01:08:21.144Z,10.20
2022-09-28T01:10:48.593Z,9.32
2022-09-28T01:13:16.351Z,10.93
2022-09-28T01:16:08.186Z,10.30
2022-09-28T01:18:58.380Z,13.20
2022-09-28T01:21:25.998Z,13.35
2022-09-28T01:24:10.183Z,9.93
2022-09-28T01:27:05.849Z,10.63
2022-09-28T01:29:46.414Z,8.93
2022-09-28T01:32:25.594Z,9.50
2022-09-28T01:34:54.803Z,12.20
2022-09-28T01:37:24.425Z,10.60
2022-09-28T01:39:54.398Z,9.90
2022-09-28T01:42:27.084Z,9.55
2022-09-28T01:45:00.194Z,12.70
2022-09-28T01:47:31.130Z,11.70
2022-09-28T01:50:12.832Z,11.65
2022-09-28T01:52:48.172Z,11.13
2022-09-28T01:55:22.688Z,12.50
2022-09-28T01:57:55.787Z,12.90
2022-09-28T02:00:24.231Z,10.20
2022-09-28T02:03:16.212Z,14.90
2022-09-28T02:05:52.809Z,10.45
2022-09-28T02:08:26.708Z,12.57
2022-09-28T02:11:10.995Z,10.55
2022-09-28T02:13:41.284Z,12.75
2022-09-28T02:16:20.008Z,12.35
2022-09-28T02:18:47.015Z,13.70
2022-09-28T02:21:23.061Z,14.40
2022-09-28T02:23:57.997Z,12.18
2022-09-28T02:26:30.798Z,15.95
2022-09-28T02:28:58.423Z,11.60
2022-09-28T02:31:26.501Z,12.75
2022-09-28T02:33:56.764Z,16.27
2022-09-28T02:36:25.655Z,10.70
2022-09-28T02:38:52.424Z,16.20
2022-09-28T02:41:36.919Z,16.52
2022-09-28T02:44:21.278Z,13.93
2022-09-28T02:47:03.918Z,16.65
2022-09-28T02:49:43.540Z,15.15
2022-09-28T02:52:33.712Z,14.20
2022-09-28T02:55:18.489Z,16.70
2022-09-28T02:58:06.721Z,14.13
2022-09-28T03:00:41.084Z,17.77
2022-09-28T03:03:15.816Z,14.38
2022-09-28T03:06:04.282Z,13.95
2022-09-28T03:08:35.373Z,14.45
2022-09-28T03:11:07.404Z,13.13
2022-09-28T03:13:35.208Z,13.95
2022-09-28T03:16:13.858Z,13.70
2022-09-28T03:18:40.899Z,13.13
2022-09-28T03:21:09.140Z,19.00
2022-09-28T03:23:35.536Z,12.15
2022-09-28T03:26:01.916Z,12.90
2022-09-28T03:28:29.161Z,12.55
2022-09-28T03:30:55.879Z,14.65
2022-09-28T03:33:22.692Z,3.40
2022-09-28T03:35:50.384Z,13.43
2022-09-28T03:38:18.256Z,11.05
2022-09-28T03:40:52.919Z,11.70
2022-09-28T03:43:19.332Z,11.23
2022-09-28T03:45:52.889Z,10.52
2022-09-28T03:48:25.085Z,13.75
2022-09-28T03:50:59.646Z,16.27
2022-09-28T03:53:26.342Z,12.30
2022-09-28T03:55:55.595Z,13.52
2022-09-28T03:58:23.053Z,12.77
2022-09-28T04:00:50.274Z,12.70
2022-09-28T04:03:16.757Z,13.07
2022-09-28T04:05:50.851Z,13.23
2022-09-28T04:08:17.768Z,14.32
2022-09-28T04:10:44.425Z,12.05
2022-09-28T04:13:10.856Z,13.07
2022-09-28T04:15:38.383Z,14.18
2022-09-28T04:18:11.994Z,12.43
2022-09-28T04:20:40.947Z,11.60
2022-09-28T04:23:07.437Z,14.75
2022-09-28T04:25:33.850Z,14.52
2022-09-28T04:28:18.509Z,14.23
2022-09-28T04:30:47.188Z,14.63
2022-09-28T04:33:13.483Z,13.30
2022-09-28T04:35:39.841Z,15.43
2022-09-28T04:38:06.198Z,11.45
2022-09-28T04:40:32.562Z,13.40
2022-09-28T04:42:58.921Z,12.45
2022-09-28T04:45:28.496Z,12.10
2022-09-28T04:47:54.905Z,12.68
2022-09-28T04:50:21.414Z,12.15
2022-09-28T04:52:47.751Z,11.93
2022-09-28T04:55:14.637Z,13.98
2022-09-28T04:57:41.126Z,12.57
2022-09-28T05:00:08.805Z,13.32
2022-09-28T05:02:37.632Z,13.85
2022-09-28T05:05:04.395Z,13.73
2022-09-28T05:07:31.138Z,14.52
2022-09-28T05:10:00.908Z,15.32
2022-09-28T05:12:27.245Z,10.00
2022-09-28T05:14:53.532Z,14.63
2022-09-28T05:17:19.853Z,15.32
2022-09-28T05:19:46.209Z,15.50
2022-09-28T05:22:14.686Z,14.18
2022-09-28T05:24:41.237Z,15.50
2022-09-28T05:27:07.651Z,13.80
2022-09-28T05:29:34.058Z,14.43
2022-09-28T05:32:01.636Z,15.30
2022-09-28T05:34:28.148Z,16.75
2022-09-28T05:36:54.494Z,16.52
2022-09-28T05:39:20.940Z,17.58
2022-09-28T05:41:47.271Z,14.68
2022-09-28T05:44:13.627Z,14.10
2022-09-28T05:46:39.947Z,16.90
2022-09-28T05:49:06.331Z,15.35
2022-09-28T05:51:32.651Z,11.18
2022-09-28T05:54:04.623Z,12.55
2022-09-28T05:56:32.790Z,13.80
2022-09-28T05:58:59.214Z,11.98
2022-09-28T06:01:25.677Z,13.68
2022-09-28T06:03:52.036Z,15.20
2022-09-28T06:06:18.358Z,16.02
2022-09-28T06:08:46.231Z,11.43
2022-09-28T06:11:12.684Z,11.90
2022-09-28T06:13:39.935Z,11.88
2022-09-28T06:16:08.034Z,12.63
2022-09-28T06:18:34.513Z,13.43
2022-09-28T06:21:01.191Z,12.95
2022-09-28T06:23:27.552Z,18.25
2022-09-28T06:25:53.879Z,11.75
2022-09-28T06:28:20.186Z,13.00
2022-09-28T06:30:48.140Z,15.70
2022-09-28T06:33:15.197Z,10.20
2022-09-28T06:35:42.265Z,9.85
2022-09-28T06:38:08.861Z,10.40
2022-09-28T06:40:36.255Z,16.05
2022-09-28T06:43:12.450Z,11.80
2022-09-28T06:45:39.411Z,10.35
2022-09-28T06:48:06.807Z,12.50
2022-09-28T06:50:39.622Z,7.75
2022-09-28T06:53:07.250Z,10.18
2022-09-28T06:55:33.771Z,9.73
2022-09-28T06:58:05.200Z,9.82
2022-09-28T07:00:35.227Z,7.72
2022-09-28T07:03:02.745Z,8.75
2022-09-28T07:05:29.952Z,8.25
2022-09-28T07:07:57.381Z,7.68
2022-09-28T07:10:27.766Z,6.57
2022-09-28T07:12:55.699Z,8.02
2022-09-28T07:15:22.606Z,8.60
2022-09-28T07:18:00.649Z,13.15
2022-09-28T07:20:29.435Z,8.82
2022-09-28T07:22:59.811Z,7.68
2022-09-28T07:25:32.936Z,8.98
2022-09-28T07:28:00.068Z,9.85
2022-09-28T07:30:28.666Z,8.52
2022-09-28T07:32:55.585Z,7.68
2022-09-28T07:35:24.913Z,8.93
2022-09-28T07:38:00.300Z,10.65
2022-09-28T07:40:48.400Z,10.13
2022-09-28T07:43:20.345Z,6.78
2022-09-28T07:45:52.343Z,6.97
2022-09-28T07:48:19.095Z,5.28
2022-09-28T07:50:51.805Z,5.38
2022-09-28T07:53:20.108Z,6.40
2022-09-28T07:56:03.758Z,6.25
2022-09-28T07:58:32.711Z,5.20
2022-09-28T08:01:02.871Z,4.05
2022-09-28T08:03:29.257Z,7.97
2022-09-28T08:06:04.361Z,3.60
2022-09-28T08:08:33.060Z,4.95
2022-09-28T08:10:59.505Z,3.95
2022-09-28T08:13:27.288Z,5.13
2022-09-28T08:15:54.978Z,4.07
2022-09-28T08:18:21.416Z,4.68
2022-09-28T08:21:06.379Z,4.40
2022-09-28T08:23:32.716Z,4.18
2022-09-28T08:25:59.106Z,3.55
2022-09-28T08:28:25.611Z,3.13
2022-09-28T08:30:52.663Z,3.17
2022-09-28T08:33:22.961Z,1.80
2022-09-28T08:35:59.102Z,3.72
2022-09-28T08:38:26.914Z,2.70
2022-09-28T08:41:07.398Z,1.92
2022-09-28T08:44:00.171Z,3.60
2022-09-28T08:46:33.518Z,3.65
2022-09-28T08:49:24.934Z,4.03
2022-09-28T08:52:02.939Z,5.15
2022-09-28T08:54:41.545Z,4.03
2022-09-28T08:57:30.761Z,3.10
2022-09-28T09:00:00.143Z,2.53
2022-09-28T09:02:33.313Z,1.92
2022-09-28T09:05:12.236Z,1.25
2022-09-28T09:07:41.279Z,5.03
2022-09-28T09:10:35.212Z,4.25
2022-09-28T09:13:17.395Z,2.35
2022-09-28T09:15:56.123Z,3.80
2022-09-28T09:18:53.643Z,2.65
2022-09-28T09:21:38.884Z,2.33
2022-09-28T09:24:27.024Z,1.90
2022-09-28T09:27:05.359Z,2.08
2022-09-28T09:29:45.565Z,0.82
2022-09-28T09:32:23.545Z,3.08
2022-09-28T09:37:35.360Z,1.95
2022-09-28T09:40:15.594Z,2.55
2022-09-28T09:42:47.781Z,3.67
2022-09-28T09:45:33.104Z,1.95
2022-09-28T09:48:09.603Z,2.05
2022-09-28T09:50:50.967Z,0.73
2022-09-28T09:56:12.954Z,0.38
2022-09-28T09:58:47.707Z,1.25
2022-09-28T10:01:18.268Z,1.52
2022-09-28T10:03:48.372Z,2.25
2022-09-28T10:06:27.337Z,1.58
2022-09-28T10:09:28.299Z,6.25
2022-09-28T10:11:54.730Z,4.15
2022-09-28T10:14:24.017Z,1.55
2022-09-28T10:16:53.642Z,1.00
2022-09-28T10:19:30.341Z,1.25
2022-09-28T10:21:58.904Z,1.35
2022-09-28T10:24:46.332Z,0.85
2022-09-28T10:27:16.820Z,2.78
2022-09-28T10:29:45.577Z,3.22
2022-09-28T10:32:23.772Z,2.72
2022-09-28T10:34:51.701Z,1.92
2022-09-28T10:37:19.438Z,1.95
2022-09-28T10:39:50.745Z,1.83
2022-09-28T10:42:25.415Z,9.27
2022-09-28T10:44:56.104Z,0.68
2022-09-28T10:47:25.739Z,2.05
2022-09-28T10:49:54.610Z,1.25
2022-09-28T10:52:46.255Z,1.30
2022-09-28T10:55:22.502Z,1.45
2022-09-28T10:57:49.129Z,1.60
2022-09-28T11:00:38.669Z,0.75
2022-09-28T11:03:05.280Z,0.95
2022-09-28T11:05:32.379Z,2.15
2022-09-28T11:08:02.899Z,0.60
2022-09-28T11:10:32.694Z,0.95
2022-09-28T11:12:59.916Z,1.50
2022-09-28T11:15:30.258Z,1.10
2022-09-28T11:17:56.669Z,2.47
2022-09-28T11:20:28.477Z,0.25
2022-09-28T11:23:00.549Z,3.97
2022-09-28T11:25:31.230Z,0.30
2022-09-28T11:28:01.420Z,1.00
2022-09-28T11:30:29.647Z,1.70
2022-09-28T11:33:11.852Z,0.85
2022-09-28T11:35:45.109Z,1.10
2022-09-28T11:38:40.665Z,0.65
2022-09-28T11:41:07.081Z,0.32
2022-09-28T11:43:55.136Z,0.38
2022-09-28T11:46:43.750Z,0.40
2022-09-28T11:49:52.248Z,0.15
2022-09-28T11:52:30.839Z,0.17
2022-09-28T11:55:12.817Z,0.28
2022-09-28T11:57:45.070Z,0.10
2022-09-28T12:00:19.044Z,0.30
2022-09-28T12:02:52.353Z,1.35
2022-09-28T12:05:25.034Z,1.35
2022-09-28T12:08:17.218Z,1.85
2022-09-28T12:11:17.586Z,0.35
2022-09-28T12:13:48.000Z,0.45
2022-09-28T12:19:42.296Z,0.43
2022-09-28T12:22:15.916Z,0.60
2022-09-28T12:24:45.985Z,0.55
2022-09-28T12:27:30.025Z,0.35
2022-09-28T12:30:04.433Z,0.50
2022-09-28T12:32:35.641Z,0.20
2022-09-28T12:37:53.886Z,2.72
2022-09-28T12:40:58.911Z,0.30
2022-09-28T12:43:33.514Z,1.70
2022-09-28T12:46:10.881Z,0.10
2022-09-28T12:49:33.117Z,0.17
2022-09-28T12:52:01.327Z,2.25
2022-09-28T12:54:50.559Z,0.38
2022-09-28T12:57:47.728Z,0.38
2022-09-28T13:00:18.599Z,2.15
2022-09-28T13:03:01.222Z,2.53
2022-09-28T13:06:08.017Z,0.30
2022-09-28T13:08:46.976Z,0.10
2022-09-28T13:11:34.497Z,0.85
2022-09-28T13:14:22.150Z,0.40
2022-09-28T13:17:00.955Z,0.52
2022-09-28T13:19:36.167Z,0.40
2022-09-28T13:22:23.221Z,0.90
2022-09-28T13:24:51.383Z,0.45
2022-09-28T13:27:36.047Z,0.22
2022-09-28T13:30:06.354Z,0.30
2022-09-28T13:32:35.783Z,0.10
2022-09-28T13:35:02.439Z,0.45
2022-09-28T13:37:29.646Z,1.02
2022-09-28T13:39:58.796Z,0.10
2022-09-28T13:42:44.392Z,0.30
2022-09-28T13:45:23.072Z,0.52
2022-09-28T13:47:52.396Z,0.60
2022-09-28T13:50:34.326Z,2.78
2022-09-28T13:53:17.156Z,0.40
2022-09-28T13:55:56.609Z,0.50
2022-09-28T13:59:00.553Z,0.45
2022-09-28T14:01:32.189Z,0.95
2022-09-28T14:04:20.465Z,2.58
2022-09-28T14:06:53.556Z,0.30
2022-09-28T14:09:49.269Z,0.70
2022-09-28T14:12:30.069Z,2.33
2022-09-28T14:14:56.777Z,0.60
2022-09-28T14:17:25.777Z,0.40
2022-09-28T14:20:02.009Z,0.75
2022-09-28T14:22:51.063Z,0.85
2022-09-28T14:25:23.595Z,0.70
2022-09-28T14:28:01.246Z,0.75
2022-09-28T14:30:35.340Z,5.13
2022-09-28T14:33:16.956Z,0.17
2022-09-28T14:35:48.471Z,2.75
2022-09-28T14:38:37.510Z,4.45
2022-09-28T14:41:16.011Z,0.73
2022-09-28T14:43:45.497Z,4.82
2022-09-28T14:46:12.345Z,1.00
2022-09-28T14:48:51.044Z,3.30
2022-09-28T14:51:26.422Z,3.17
2022-09-28T14:53:56.330Z,2.92
2022-09-28T14:56:22.668Z,2.33
2022-09-28T14:58:54.814Z,2.78
2022-09-28T15:01:24.546Z,0.80
2022-09-28T15:04:01.397Z,0.38
2022-09-28T15:06:43.996Z,0.10
2022-09-28T15:09:29.463Z,0.15
2022-09-28T15:12:01.139Z,1.15
2022-09-28T15:14:31.804Z,0.60
2022-09-28T15:17:09.658Z,1.30
2022-09-28T15:19:53.509Z,1.38
2022-09-28T15:22:21.132Z,0.80
2022-09-28T15:25:02.939Z,0.98
2022-09-28T15:27:37.888Z,0.75
2022-09-28T15:30:27.317Z,0.30
2022-09-28T15:32:56.677Z,1.77
2022-09-28T15:35:26.260Z,3.03
2022-09-28T15:37:58.622Z,3.70
2022-09-28T15:40:33.328Z,1.35
2022-09-28T15:42:59.955Z,3.17
2022-09-28T15:45:31.907Z,3.85
2022-09-28T15:48:19.742Z,2.90
2022-09-28T15:51:12.358Z,0.35
2022-09-28T15:53:51.299Z,2.05
2022-09-28T15:56:17.659Z,0.60
2022-09-28T15:58:46.404Z,0.65
2022-09-28T16:01:36.433Z,1.73
2022-09-28T16:04:40.264Z,0.75
2022-09-28T16:07:12.568Z,0.80
2022-09-28T16:10:00.274Z,1.38
2022-09-28T16:12:42.423Z,2.50
2022-09-28T16:15:28.723Z,0.73
2022-09-28T16:18:00.571Z,0.43
2022-09-28T16:20:47.591Z,1.92
2022-09-28T16:23:16.964Z,1.45
2022-09-28T16:26:04.130Z,0.10
2022-09-28T16:28:34.588Z,1.20
2022-09-28T16:31:03.126Z,0.68
2022-09-28T16:33:38.243Z,3.42
2022-09-28T16:36:12.337Z,4.13
2022-09-28T16:38:38.872Z,0.98
2022-09-28T16:41:05.962Z,1.38
2022-09-28T16:43:34.884Z,0.30
2022-09-28T16:46:14.016Z,1.45
2022-09-28T16:48:48.598Z,1.50
2022-09-28T16:51:19.635Z,0.80
2022-09-28T16:54:04.842Z,2.50
2022-09-28T16:56:32.988Z,2.13
2022-09-28T16:58:59.749Z,0.77
2022-09-28T17:01:26.119Z,1.75
2022-09-28T17:03:52.513Z,3.38
2022-09-28T17:06:21.860Z,2.17
2022-09-28T17:08:48.248Z,1.23
2022-09-28T17:11:20.513Z,1.08
2022-09-28T17:13:49.965Z,3.70
2022-09-28T17:16:32.211Z,3.30
2022-09-28T17:19:21.177Z,1.25
2022-09-28T17:21:48.036Z,2.70
2022-09-28T17:24:14.416Z,2.13
2022-09-28T17:26:43.749Z,2.58
2022-09-28T17:29:14.410Z,1.63
2022-09-28T17:31:47.802Z,2.45
2022-09-28T17:34:16.098Z,1.05
2022-09-28T17:36:45.397Z,2.40
2022-09-28T17:39:27.544Z,0.93
2022-09-28T17:41:57.037Z,2.05
2022-09-28T17:44:23.423Z,1.50
2022-09-28T17:46:50.904Z,1.48
2022-09-28T17:49:17.608Z,2.65
2022-09-28T17:51:44.048Z,2.30
2022-09-28T17:54:12.775Z,2.00
2022-09-28T17:56:39.657Z,2.78
2022-09-28T17:59:08.195Z,3.33
2022-09-28T18:01:38.973Z,4.15
2022-09-28T18:04:07.982Z,5.10
2022-09-28T18:06:35.018Z,5.80
2022-09-28T18:09:05.129Z,4.18
2022-09-28T18:11:32.850Z,4.43
2022-09-28T18:13:59.305Z,2.65
2022-09-28T18:16:27.891Z,3.05
2022-09-28T18:18:54.779Z,3.40
2022-09-28T18:21:21.134Z,2.40
2022-09-28T18:23:47.644Z,5.18
2022-09-28T18:26:15.914Z,3.05
2022-09-28T18:28:46.478Z,3.92
2022-09-28T18:31:15.105Z,2.67
2022-09-28T18:33:41.745Z,4.63
2022-09-28T18:36:08.418Z,3.50
2022-09-28T18:38:36.108Z,3.78
2022-09-28T18:41:16.019Z,3.20
2022-09-28T18:43:49.229Z,3.70
2022-09-28T18:46:17.987Z,5.03
2022-09-28T18:48:44.794Z,2.03
2022-09-28T18:51:12.323Z,3.03
2022-09-28T18:53:39.927Z,4.80
2022-09-28T18:56:12.009Z,2.53
2022-09-28T18:58:40.070Z,3.85
2022-09-28T19:01:31.545Z,3.25
2022-09-28T19:04:00.447Z,3.28
2022-09-28T19:06:27.169Z,2.30
2022-09-28T19:08:55.569Z,3.17
2022-09-28T19:11:23.366Z,6.85
2022-09-28T19:13:49.937Z,3.13
2022-09-28T19:16:28.830Z,3.40
2022-09-28T19:18:58.963Z,4.20
2022-09-28T19:21:27.361Z,2.78
2022-09-28T19:23:55.225Z,3.65
2022-09-28T19:26:27.251Z,3.10
2022-09-28T19:28:55.537Z,3.33
2022-09-28T19:31:22.773Z,2.88
2022-09-28T19:33:49.730Z,3.88
2022-09-28T19:36:19.358Z,3.72
2022-09-28T19:38:46.089Z,4.90
2022-09-28T19:41:39.013Z,6.72
2022-09-28T19:44:13.291Z,4.25
2022-09-28T19:46:40.555Z,3.92
2022-09-28T19:49:09.113Z,4.07
2022-09-28T19:51:37.162Z,3.65
2022-09-28T19:54:06.224Z,4.40
2022-09-28T19:56:33.996Z,5.25
2022-09-28T19:59:01.036Z,4.47
2022-09-28T20:01:28.495Z,3.53
2022-09-28T20:03:56.532Z,3.30
2022-09-28T20:06:24.049Z,3.80
2022-09-28T20:08:51.282Z,3.85
2022-09-28T20:11:19.273Z,4.72
2022-09-28T20:13:46.117Z,3.80
2022-09-28T20:16:15.037Z,2.88
2022-09-28T20:18:44.133Z,3.85
2022-09-28T20:21:18.106Z,2.85
2022-09-28T20:23:45.904Z,3.40
2022-09-28T20:26:13.496Z,3.83
2022-09-28T20:28:40.702Z,3.80
2022-09-28T20:31:16.622Z,4.30
2022-09-28T20:33:43.981Z,8.52
2022-09-28T20:36:13.588Z,4.20
2022-09-28T20:38:43.093Z,4.10
2022-09-28T20:41:11.727Z,3.58
2022-09-28T20:43:39.320Z,4.38
2022-09-28T20:46:07.201Z,5.28
2022-09-28T20:48:33.876Z,4.25
2022-09-28T20:51:03.050Z,5.97
2022-09-28T20:53:30.530Z,5.85
2022-09-28T20:56:20.352Z,4.07
2022-09-28T20:58:47.411Z,4.55
2022-09-28T21:01:19.543Z,4.35
2022-09-28T21:03:52.002Z,6.97
2022-09-28T21:06:20.365Z,4.75
2022-09-28T21:08:46.725Z,4.78
2022-09-28T21:11:14.924Z,6.57
2022-09-28T21:13:42.870Z,4.72
2022-09-28T21:16:11.399Z,4.32
2022-09-28T21:18:39.223Z,5.93
2022-09-28T21:21:07.169Z,6.32
2022-09-28T21:23:34.095Z,6.05
2022-09-28T21:26:15.621Z,6.38
2022-09-28T21:28:42.450Z,5.05
2022-09-28T21:31:11.167Z,5.85
2022-09-28T21:33:38.047Z,5.53
2022-09-28T21:36:06.765Z,6.45
2022-09-28T21:38:34.544Z,4.75
2022-09-28T21:41:01.218Z,6.68
2022-09-28T21:43:29.452Z,5.20
2022-09-28T21:45:56.766Z,7.63
2022-09-28T21:48:24.999Z,5.20
2022-09-28T21:50:57.981Z,5.25
2022-09-28T21:53:26.745Z,7.43
2022-09-28T21:55:53.564Z,6.78
2022-09-28T21:58:23.006Z,7.25
2022-09-28T22:00:59.438Z,5.97
2022-09-28T22:03:25.770Z,8.50
2022-09-28T22:05:52.432Z,7.45
2022-09-28T22:08:19.862Z,6.15
2022-09-28T22:10:57.483Z,6.05
2022-09-28T22:13:23.792Z,9.52
2022-09-28T22:15:54.241Z,7.00
2022-09-28T22:18:20.606Z,6.65
2022-09-28T22:20:47.042Z,6.30
2022-09-28T22:23:13.427Z,7.53
2022-09-28T22:25:39.776Z,8.43
2022-09-28T22:28:06.080Z,8.50
2022-09-28T22:30:34.656Z,7.68
2022-09-28T22:33:02.289Z,8.98
2022-09-28T22:35:28.655Z,8.32
2022-09-28T22:37:54.949Z,7.55
2022-09-28T22:40:21.346Z,10.35
2022-09-28T22:42:47.673Z,7.35
2022-09-28T22:45:13.999Z,12.57
2022-09-28T22:47:40.351Z,11.27
2022-09-28T22:50:08.050Z,8.45
2022-09-28T22:52:34.396Z,8.63
2022-09-28T22:55:00.741Z,12.77
2022-09-28T22:57:27.066Z,9.02
2022-09-28T22:59:53.368Z,10.65
2022-09-28T23:02:19.747Z,14.43
2022-09-28T23:04:46.077Z,10.05
2022-09-28T23:07:12.460Z,11.77
2022-09-28T23:09:39.098Z,13.15
2022-09-28T23:12:05.505Z,9.00
2022-09-28T23:14:31.853Z,11.75
2022-09-28T23:16:58.194Z,12.57
2022-09-28T23:19:24.501Z,12.27
2022-09-28T23:21:50.820Z,9.63
2022-09-28T23:24:17.261Z,9.50
2022-09-28T23:26:43.571Z,11.00
2022-09-28T23:29:11.343Z,9.38
2022-09-28T23:31:38.769Z,8.85
2022-09-28T23:34:06.558Z,11.63
2022-09-28T23:36:33.422Z,8.35
2022-09-28T23:39:00.192Z,10.38
2022-09-28T23:41:26.639Z,10.00
2022-09-28T23:43:52.982Z,8.65
2022-09-28T23:46:21.007Z,13.75
2022-09-28T23:48:48.120Z,11.07
2022-09-28T23:51:14.444Z,10.48
2022-09-28T23:53:40.829Z,9.75
2022-09-28T23:56:07.167Z,8.85
2022-09-28T23:58:33.513Z,8.80
